LFMD/CEQ METAR and TAF weather

Enter ICAO airport designator
Station Type Date Time Source
LFMD METAR 2019/12/10 03:00 UTC NOAA

LFMD 100300Z AUTO VRB03KT CAVOK 06/M00 Q1011 NOSIG


Station Type Date Time Source
LFMD Decoded METAR 2019/12/10 03:00 UTC NOAA

Cannes, France (LFMD) 43-33N 006-57E 9M
Dec 09, 2019 - 10:00 PM EST / 2019.12.10 0300 UTC
Wind: Variable at 3 MPH (3 KT):0
Visibility: greater than 7 mile(s):0
Temperature: 42 F (6 C)
Dew Point: 32 F (0 C)
Relative Humidity: 65%
Pressure (altimeter): 29.85 in. Hg (1011 hPa)
ob: LFMD 100300Z AUTO VRB03KT CAVOK 06/M00 Q1011 NOSIG
cycle: 3

Station Type Date Time Source
LFMD TAF 2019/12/10 03:25 UTC NOAA

TAF LFMD 100200Z 1003/1103 VRB02KT CAVOK
TEMPO 1005/1012 28010KT CAVOK
BECMG 1016/1018 36005KT

Example: see airport list